KMRF/MRF METAR and TAF weather

Enter ICAO airport designator
Station Type Date Time Source
KMRF METAR 2021/07/28 18:56 UTC NOAA

KMRF 281856Z AUTO 04015KT 9SM -RA FEW043 SCT050 OVC070 19/16 A3034 RMK AO2 RAB09 SLP219 P0002 T01940161


Station Type Date Time Source
KMRF Decoded METAR 2021/07/28 18:56 UTC NOAA

Marfa, TX, United States (KMRF) 30-22N 104-01W 1481M
Jul 28, 2021 - 02:56 PM EDT / 2021.07.28 1856 UTC
Wind: from the NE (040 degrees) at 17 MPH (15 KT):0
Visibility: 9 mile(s):0
Sky conditions: overcast
Weather: light rain
Precipitation last hour: 0.02 inches
Temperature: 66.9 F (19.4 C)
Dew Point: 61.0 F (16.1 C)
Relative Humidity: 81%
Pressure (altimeter): 30.34 in. Hg (1027 hPa)
ob: KMRF 281856Z AUTO 04015KT 9SM -RA FEW043 SCT050 OVC070 19/16 A3034 RMK AO2 RAB09 SLP219 P0002 T01940161
cycle: 19

Station Type Date Time Source
KMRF TAF UTC NOAA

Error!

Example: see airport list